Nesenie raksti

Ziņas

Par Gliding.lv

Gliding.lv ir interneta vietne par planieriem un planierismu. Šeit būs atrodama informācija par iespējām pamēģināt, iesaistīties un organizēt planierisma aktivitātes. Izmanto Gliding.lv forumu, ja Tev ir kāda tēma diskusijai vai jautājums. Gliding.lv merķis ir informēt un apvienot planierisma interesentus, nodrošinot un apmainoties ar aktuālāko un arī bijušo. Lidojam!

Laiks Rīgā
1°
overcast clouds
mitrums: 93%
vējš: 4m/s DA
Aug 2 • Zem 2
3°
Cet
3°
Pie
6°
Ses
7°
Svē
Meteo-dati no OpenWeatherMap

METAR

EVRA 290050Z 13008KT 100V160 9999 -RASN OVC005 02/01 Q0994 R18/190095 NOSIG

EVLA 290050Z AUTO 15006KT 7000 OVC004/// 03/03 Q0991

EVVA 290050Z AUTO 13010KT 9000 OVC009 03/02 Q0991

Nesenie raksti

Pāriet uz rīkjoslu